createdAt,value
2018-12-12T00:00:11.062Z,91.00
2018-12-12T00:02:39.968Z,91.00
2018-12-12T00:05:08.590Z,91.10
2018-12-12T00:07:37.219Z,91.20
2018-12-12T00:10:07.920Z,91.30
2018-12-12T00:12:37.471Z,91.40
2018-12-12T00:15:06.804Z,91.40
2018-12-12T00:17:35.516Z,91.50
2018-12-12T00:20:04.808Z,91.50
2018-12-12T00:22:33.525Z,91.60
2018-12-12T00:25:02.126Z,91.50
2018-12-12T00:27:30.783Z,91.50
2018-12-12T00:29:59.372Z,91.60
2018-12-12T00:32:28.005Z,91.70
2018-12-12T00:34:56.604Z,91.70
2018-12-12T00:37:25.777Z,91.60
2018-12-12T00:39:54.319Z,91.70
2018-12-12T00:42:22.939Z,91.60
2018-12-12T00:44:52.387Z,91.40
2018-12-12T00:47:20.933Z,91.60
2018-12-12T00:49:49.501Z,91.40
2018-12-12T00:52:18.156Z,91.20
2018-12-12T00:54:46.925Z,91.30
2018-12-12T00:57:15.606Z,91.30
2018-12-12T00:59:44.456Z,91.30
2018-12-12T01:02:12.944Z,91.40
2018-12-12T01:04:41.540Z,91.50
2018-12-12T01:07:10.148Z,91.50
2018-12-12T01:09:38.881Z,91.50
2018-12-12T01:12:12.552Z,91.50
2018-12-12T01:14:41.252Z,91.60
2018-12-12T01:17:09.937Z,91.60
2018-12-12T01:19:45.389Z,91.70
2018-12-12T01:22:13.970Z,91.60
2018-12-12T01:24:42.491Z,91.60
2018-12-12T01:27:11.126Z,91.60
2018-12-12T01:29:39.704Z,91.50
2018-12-12T01:32:08.328Z,91.40
2018-12-12T01:34:37.096Z,91.20
2018-12-12T01:37:05.747Z,91.20
2018-12-12T01:39:34.439Z,91.20
2018-12-12T01:42:03.032Z,91.20
2018-12-12T01:44:31.575Z,91.30
2018-12-12T01:47:00.157Z,91.30
2018-12-12T01:49:28.805Z,91.30
2018-12-12T01:51:57.410Z,91.40
2018-12-12T01:54:25.993Z,91.10
2018-12-12T01:56:54.672Z,91.30
2018-12-12T01:59:23.300Z,91.10
2018-12-12T02:01:52.340Z,91.30
2018-12-12T02:04:20.955Z,91.50
2018-12-12T02:06:49.510Z,91.70
2018-12-12T02:09:18.072Z,92.10
2018-12-12T02:11:46.661Z,92.30
2018-12-12T02:14:15.232Z,92.40
2018-12-12T02:16:43.817Z,92.60
2018-12-12T02:19:12.428Z,92.70
2018-12-12T02:21:40.995Z,92.80
2018-12-12T02:24:09.603Z,93.00
2018-12-12T02:26:38.260Z,92.90
2018-12-12T02:29:06.800Z,92.70
2018-12-12T02:31:35.549Z,92.80
2018-12-12T02:34:04.269Z,92.80
2018-12-12T02:36:32.907Z,92.80
2018-12-12T02:39:01.592Z,92.80
2018-12-12T02:41:30.182Z,93.00
2018-12-12T02:43:58.767Z,93.20
2018-12-12T02:46:27.421Z,93.30
2018-12-12T02:48:56.536Z,93.50
2018-12-12T02:51:25.261Z,93.50
2018-12-12T02:53:54.817Z,93.60
2018-12-12T02:56:23.355Z,93.60
2018-12-12T02:58:51.889Z,93.80
2018-12-12T03:01:20.486Z,93.80
2018-12-12T03:03:49.205Z,93.80
2018-12-12T03:06:18.013Z,93.70
2018-12-12T03:08:46.621Z,93.80
2018-12-12T03:11:20.148Z,93.80
2018-12-12T03:13:48.859Z,93.90
2018-12-12T03:16:17.449Z,93.60
2018-12-12T03:18:46.034Z,93.40
2018-12-12T03:21:14.592Z,93.30
2018-12-12T03:23:43.176Z,93.40
2018-12-12T03:26:11.864Z,93.50
2018-12-12T03:28:40.564Z,93.60
2018-12-12T03:31:09.117Z,93.90
2018-12-12T03:33:37.710Z,93.90
2018-12-12T03:36:06.723Z,93.80
2018-12-12T03:38:35.257Z,93.90
2018-12-12T03:41:03.897Z,93.90
2018-12-12T03:43:32.465Z,93.90
2018-12-12T03:46:01.073Z,93.80
2018-12-12T03:48:29.898Z,93.70
2018-12-12T03:50:58.613Z,93.70
2018-12-12T03:53:27.406Z,93.70
2018-12-12T03:55:55.995Z,93.70
2018-12-12T03:58:24.596Z,93.80
2018-12-12T04:00:53.232Z,93.70
2018-12-12T04:03:21.892Z,93.70
2018-12-12T04:05:50.383Z,93.70
2018-12-12T04:08:18.932Z,93.80
2018-12-12T04:10:47.891Z,93.80
2018-12-12T04:13:16.478Z,93.90
2018-12-12T04:15:52.267Z,93.90
2018-12-12T04:18:20.953Z,94.10
2018-12-12T04:20:50.137Z,94.10
2018-12-12T04:23:18.814Z,94.00
2018-12-12T04:25:47.422Z,94.00
2018-12-12T04:28:15.958Z,94.00
2018-12-12T04:30:45.519Z,94.10
2018-12-12T04:33:14.481Z,94.10
2018-12-12T04:35:42.999Z,94.40
2018-12-12T04:38:11.626Z,94.20
2018-12-12T04:40:40.257Z,94.00
2018-12-12T04:43:08.962Z,93.80
2018-12-12T04:45:37.601Z,93.60
2018-12-12T04:48:06.148Z,93.50
2018-12-12T04:50:34.749Z,93.50
2018-12-12T04:53:03.425Z,93.60
2018-12-12T04:55:38.664Z,93.80
2018-12-12T04:58:07.331Z,93.90
2018-12-12T05:00:35.917Z,94.10
2018-12-12T05:03:05.139Z,94.00
2018-12-12T05:05:34.249Z,94.00
2018-12-12T05:08:03.262Z,94.10
2018-12-12T05:10:32.789Z,94.20
2018-12-12T05:13:01.468Z,94.30
2018-12-12T05:15:30.060Z,94.30
2018-12-12T05:17:58.716Z,94.20
2018-12-12T05:20:27.345Z,94.30
2018-12-12T05:22:56.238Z,94.40
2018-12-12T05:25:24.981Z,94.60
2018-12-12T05:27:53.577Z,94.40
2018-12-12T05:30:23.027Z,94.60
2018-12-12T05:32:51.684Z,94.90
2018-12-12T05:35:20.622Z,94.90
2018-12-12T05:37:51.889Z,94.60
2018-12-12T05:40:20.474Z,94.60
2018-12-12T05:42:49.295Z,94.60
2018-12-12T05:45:19.383Z,94.60
2018-12-12T05:47:47.967Z,94.50
2018-12-12T05:50:16.608Z,94.40
2018-12-12T05:52:45.151Z,94.50
2018-12-12T05:55:13.764Z,94.60
2018-12-12T05:57:42.635Z,94.60
2018-12-12T06:00:13.044Z,94.60
2018-12-12T06:02:41.588Z,94.60
2018-12-12T06:05:10.087Z,94.60
2018-12-12T06:07:39.095Z,94.70
2018-12-12T06:10:08.700Z,94.70
2018-12-12T06:12:37.285Z,94.80
2018-12-12T06:15:07.055Z,94.80
2018-12-12T06:17:38.545Z,94.70
2018-12-12T06:20:07.889Z,94.90
2018-12-12T06:22:37.867Z,95.10
2018-12-12T06:25:07.358Z,95.20
2018-12-12T06:27:36.372Z,95.20
2018-12-12T06:30:05.771Z,95.00
2018-12-12T06:32:38.176Z,95.00
2018-12-12T06:35:07.059Z,95.10
2018-12-12T06:37:35.679Z,95.20
2018-12-12T06:40:04.756Z,94.90
2018-12-12T06:42:33.338Z,94.60
2018-12-12T06:45:02.033Z,94.70
2018-12-12T06:47:31.634Z,94.60
2018-12-12T06:50:00.235Z,94.60
2018-12-12T06:52:28.904Z,94.50
2018-12-12T06:54:57.589Z,94.80
2018-12-12T06:57:26.180Z,94.80
2018-12-12T06:59:55.103Z,94.70
2018-12-12T07:02:24.835Z,94.90
2018-12-12T07:05:05.167Z,95.30
2018-12-12T07:10:28.331Z,95.50
2018-12-12T07:12:57.310Z,95.30
2018-12-12T07:15:27.039Z,95.20
2018-12-12T07:17:55.898Z,95.00
2018-12-12T07:20:24.608Z,95.00
2018-12-12T07:22:53.142Z,94.30
2018-12-12T07:25:21.728Z,94.10
2018-12-12T07:27:50.434Z,94.30
2018-12-12T07:30:19.910Z,94.30
2018-12-12T07:32:48.447Z,94.50
2018-12-12T07:35:17.054Z,94.50
2018-12-12T07:37:46.927Z,94.60
2018-12-12T07:40:15.581Z,94.60
2018-12-12T07:42:44.108Z,94.60
2018-12-12T07:45:13.053Z,94.40
2018-12-12T07:47:41.776Z,94.40
2018-12-12T07:50:10.714Z,94.60
2018-12-12T07:52:39.571Z,94.50
2018-12-12T07:55:09.222Z,94.60
2018-12-12T07:57:38.457Z,94.70
2018-12-12T08:00:07.965Z,94.30
2018-12-12T08:02:38.666Z,94.20
2018-12-12T08:05:07.401Z,94.00
2018-12-12T08:07:36.312Z,94.00
2018-12-12T08:10:05.824Z,94.10
2018-12-12T08:12:34.466Z,93.90
2018-12-12T08:15:04.101Z,93.60
2018-12-12T08:17:32.886Z,93.40
2018-12-12T08:20:01.649Z,93.40
2018-12-12T08:22:30.386Z,93.40
2018-12-12T08:24:59.090Z,93.40
2018-12-12T08:27:27.772Z,93.30
2018-12-12T08:29:56.785Z,93.30
2018-12-12T08:32:25.465Z,93.30
2018-12-12T08:34:55.260Z,93.10
2018-12-12T08:37:23.936Z,92.90
2018-12-12T08:39:52.711Z,92.90
2018-12-12T08:42:21.536Z,92.80
2018-12-12T08:44:50.297Z,92.80
2018-12-12T08:47:18.774Z,92.80
2018-12-12T08:49:47.689Z,92.80
2018-12-12T08:52:17.343Z,92.70
2018-12-12T08:54:46.032Z,92.70
2018-12-12T08:57:15.147Z,92.90
2018-12-12T08:59:44.999Z,92.60
2018-12-12T09:02:13.665Z,92.50
2018-12-12T09:04:43.349Z,92.40
2018-12-12T09:07:11.897Z,92.30
2018-12-12T09:09:40.547Z,92.50
2018-12-12T09:12:09.192Z,92.10
2018-12-12T09:14:37.761Z,92.00
2018-12-12T09:17:09.601Z,92.20
2018-12-12T09:19:36.479Z,92.30
2018-12-12T09:22:05.643Z,92.60
2018-12-12T09:24:34.163Z,92.50
2018-12-12T09:27:02.799Z,92.20
2018-12-12T09:29:31.430Z,92.10
2018-12-12T09:31:59.909Z,91.90
2018-12-12T09:34:28.544Z,91.70
2018-12-12T09:36:57.161Z,91.50
2018-12-12T09:39:26.576Z,91.30
2018-12-12T09:41:55.243Z,91.00
2018-12-12T09:44:24.007Z,91.00
2018-12-12T09:46:54.599Z,90.90
2018-12-12T09:49:23.225Z,90.50
2018-12-12T09:51:51.843Z,90.30
2018-12-12T09:54:20.430Z,90.20
2018-12-12T09:56:48.973Z,90.60
2018-12-12T09:59:17.603Z,90.20
2018-12-12T10:01:46.398Z,90.20
2018-12-12T10:04:16.006Z,90.10
2018-12-12T10:06:44.931Z,90.10
2018-12-12T10:09:13.520Z,90.10
2018-12-12T10:11:42.462Z,90.00
2018-12-12T10:14:11.076Z,90.00
2018-12-12T10:16:40.217Z,90.00
2018-12-12T10:19:11.102Z,89.90
2018-12-12T10:21:39.789Z,89.60
2018-12-12T10:24:09.585Z,89.60
2018-12-12T10:26:38.596Z,89.50
2018-12-12T10:29:07.830Z,89.00
2018-12-12T10:31:38.377Z,89.00
2018-12-12T10:34:07.677Z,88.70
2018-12-12T10:36:36.346Z,88.90
2018-12-12T10:39:08.473Z,89.20
2018-12-12T10:41:38.172Z,89.30
2018-12-12T10:44:07.061Z,89.70
2018-12-12T10:46:35.603Z,89.60
2018-12-12T10:49:04.433Z,89.60
2018-12-12T10:51:33.620Z,89.60
2018-12-12T10:54:02.597Z,89.60
2018-12-12T10:56:31.710Z,89.30
2018-12-12T10:59:00.664Z,89.00
2018-12-12T11:01:34.557Z,88.60
2018-12-12T11:04:03.513Z,88.30
2018-12-12T11:06:33.203Z,88.00
2018-12-12T11:09:04.569Z,88.10
2018-12-12T11:11:33.415Z,87.70
2018-12-12T11:14:02.313Z,87.50
2018-12-12T11:16:31.524Z,87.40
2018-12-12T11:19:01.994Z,87.00
2018-12-12T11:21:33.174Z,86.10
2018-12-12T11:24:07.709Z,85.00
2018-12-12T11:26:36.475Z,84.60
2018-12-12T11:29:05.077Z,84.20
2018-12-12T11:31:33.831Z,84.50
2018-12-12T11:34:02.460Z,83.80
2018-12-12T11:36:31.118Z,82.70
2018-12-12T11:39:00.298Z,82.10
2018-12-12T11:41:29.860Z,81.30
2018-12-12T11:43:58.689Z,80.30
2018-12-12T11:46:27.652Z,78.40
2018-12-12T11:48:56.506Z,75.40
2018-12-12T11:51:25.519Z,69.20
2018-12-12T11:53:54.703Z,61.70
2018-12-12T11:56:23.414Z,56.50
2018-12-12T11:58:51.969Z,52.50
2018-12-12T12:01:20.767Z,50.00
2018-12-12T12:03:49.355Z,48.40
2018-12-12T12:06:18.173Z,48.00
2018-12-12T12:08:46.832Z,47.90
2018-12-12T12:11:15.398Z,47.30
2018-12-12T12:13:44.695Z,47.20
2018-12-12T12:16:13.329Z,49.10
2018-12-12T12:18:41.862Z,49.20
2018-12-12T12:21:10.474Z,49.90
2018-12-12T12:23:39.130Z,49.20
2018-12-12T12:26:07.897Z,48.90
2018-12-12T12:28:36.594Z,49.60
2018-12-12T12:31:07.140Z,49.60
2018-12-12T12:33:35.741Z,49.00
2018-12-12T12:36:04.340Z,48.50
2018-12-12T12:38:33.125Z,48.30
2018-12-12T12:41:02.015Z,48.60
2018-12-12T12:43:31.051Z,47.80
2018-12-12T12:45:59.627Z,47.50
2018-12-12T12:48:28.230Z,49.30
2018-12-12T12:50:56.855Z,52.00
2018-12-12T12:53:25.517Z,55.50
2018-12-12T12:55:54.352Z,58.60
2018-12-12T12:58:22.984Z,62.40
2018-12-12T13:00:52.227Z,66.10
2018-12-12T13:03:20.919Z,68.90
2018-12-12T13:05:50.463Z,70.60
2018-12-12T13:08:19.112Z,71.70
2018-12-12T13:10:47.925Z,73.00
2018-12-12T13:13:17.013Z,74.30
2018-12-12T13:15:46.227Z,75.00
2018-12-12T13:18:15.433Z,75.50
2018-12-12T13:20:44.626Z,76.10
2018-12-12T13:23:13.279Z,76.90
2018-12-12T13:25:42.625Z,77.20
2018-12-12T13:28:11.219Z,77.30
2018-12-12T13:30:43.011Z,77.10
2018-12-12T13:33:12.311Z,77.20
2018-12-12T13:35:41.621Z,77.40
2018-12-12T13:38:15.895Z,77.40
2018-12-12T13:40:44.584Z,78.00
2018-12-12T13:43:16.091Z,78.00
2018-12-12T13:45:45.349Z,78.50
2018-12-12T13:48:15.121Z,78.70
2018-12-12T13:50:44.524Z,78.70
2018-12-12T13:53:13.903Z,78.30
2018-12-12T13:55:42.677Z,78.10
2018-12-12T13:58:11.784Z,77.90
2018-12-12T14:00:40.666Z,78.10
2018-12-12T14:03:09.636Z,77.10
2018-12-12T14:05:38.521Z,76.60
2018-12-12T14:08:07.099Z,75.70
2018-12-12T14:10:35.788Z,75.60
2018-12-12T14:13:04.561Z,75.60
2018-12-12T14:15:33.400Z,75.30
2018-12-12T14:18:03.108Z,75.60
2018-12-12T14:20:31.917Z,76.20
2018-12-12T14:23:00.715Z,76.90
2018-12-12T14:39:49.835Z,78.30
2018-12-12T14:42:27.963Z,78.60
2018-12-12T14:45:01.473Z,78.80
2018-12-12T14:47:30.118Z,78.90
2018-12-12T14:49:58.714Z,78.50
2018-12-12T14:52:27.342Z,79.00
2018-12-12T14:54:55.997Z,79.30
2018-12-12T14:57:24.747Z,79.50
2018-12-12T14:59:53.373Z,79.70
2018-12-12T15:02:22.050Z,80.00
2018-12-12T15:04:50.860Z,80.00
2018-12-12T15:07:20.301Z,80.50
2018-12-12T15:09:49.412Z,80.40
2018-12-12T15:12:18.047Z,80.60
2018-12-12T15:14:48.401Z,80.80
2018-12-12T15:17:17.117Z,80.80
2018-12-12T15:19:46.280Z,80.80
2018-12-12T15:22:15.343Z,81.60
2018-12-12T15:24:44.209Z,81.90
2018-12-12T15:27:13.821Z,82.00
2018-12-12T15:29:42.500Z,82.20
2018-12-12T15:32:11.219Z,82.60
2018-12-12T15:34:42.395Z,83.10
2018-12-12T15:37:10.553Z,83.90
2018-12-12T15:39:39.494Z,83.70
2018-12-12T15:42:08.286Z,84.30
2018-12-12T15:44:37.001Z,84.50
2018-12-12T15:47:05.913Z,85.00
2018-12-12T15:49:34.780Z,85.60
2018-12-12T15:52:03.469Z,85.90
2018-12-12T15:57:08.000Z,86.30
2018-12-12T15:59:36.662Z,87.10
2018-12-12T16:04:58.560Z,87.70
2018-12-12T16:07:27.323Z,87.30
2018-12-12T16:09:56.635Z,87.10
2018-12-12T16:12:25.394Z,87.50
2018-12-12T16:14:54.906Z,87.50
2018-12-12T16:17:23.719Z,87.50
2018-12-12T16:19:52.616Z,87.50
2018-12-12T16:22:21.443Z,87.20
2018-12-12T16:24:50.145Z,87.10
2018-12-12T16:27:18.768Z,87.20
2018-12-12T16:29:47.664Z,87.50
2018-12-12T16:32:16.440Z,87.60
2018-12-12T16:34:45.326Z,87.50
2018-12-12T16:37:13.919Z,87.70
2018-12-12T16:39:42.726Z,87.70
2018-12-12T16:42:11.355Z,88.10
2018-12-12T16:44:40.409Z,88.80
2018-12-12T16:47:09.540Z,88.30
2018-12-12T16:49:38.252Z,88.60
2018-12-12T16:52:07.565Z,88.40
2018-12-12T16:54:36.558Z,89.00
2018-12-12T16:57:06.466Z,89.10
2018-12-12T16:59:35.103Z,89.30
2018-12-12T17:02:03.909Z,89.60
2018-12-12T17:04:32.578Z,90.00
2018-12-12T17:07:01.210Z,90.20
2018-12-12T17:09:29.939Z,90.10
2018-12-12T17:11:58.605Z,90.00
2018-12-12T17:14:27.201Z,90.10
2018-12-12T17:16:56.631Z,90.30
2018-12-12T17:19:27.251Z,90.40
2018-12-12T17:21:55.919Z,90.50
2018-12-12T17:24:25.210Z,90.50
2018-12-12T17:26:55.909Z,90.70
2018-12-12T17:29:27.757Z,90.80
2018-12-12T17:31:57.122Z,91.00
2018-12-12T17:34:27.327Z,91.00
2018-12-12T17:36:55.890Z,91.10
2018-12-12T17:39:24.977Z,91.00
2018-12-12T17:41:53.798Z,91.00
2018-12-12T17:44:23.369Z,91.30
2018-12-12T17:46:53.260Z,91.30
2018-12-12T17:49:24.834Z,91.30
2018-12-12T17:51:54.189Z,91.40
2018-12-12T17:54:23.437Z,91.50
2018-12-12T17:56:52.111Z,91.50
2018-12-12T17:59:23.086Z,91.50
2018-12-12T18:01:51.832Z,91.60
2018-12-12T18:04:20.463Z,91.70
2018-12-12T18:06:50.348Z,91.80
2018-12-12T18:09:21.119Z,91.90
2018-12-12T18:11:50.794Z,92.00
2018-12-12T18:14:19.827Z,92.00
2018-12-12T18:16:48.963Z,92.10
2018-12-12T18:19:18.097Z,92.20
2018-12-12T18:21:47.177Z,92.40
2018-12-12T18:24:15.773Z,92.50
2018-12-12T18:26:44.339Z,92.60
2018-12-12T18:29:13.650Z,92.70
2018-12-12T18:31:43.208Z,92.80
2018-12-12T18:34:12.385Z,92.80
2018-12-12T18:36:41.052Z,92.80
2018-12-12T18:39:09.682Z,93.40
2018-12-12T18:41:38.461Z,93.10
2018-12-12T18:44:07.095Z,93.10
2018-12-12T18:46:35.633Z,93.20
2018-12-12T18:49:04.379Z,93.30
2018-12-12T18:51:33.568Z,93.20
2018-12-12T18:54:02.251Z,93.10
2018-12-12T18:56:30.858Z,93.20
2018-12-12T18:58:59.436Z,93.30
2018-12-12T19:01:27.995Z,93.30
2018-12-12T19:03:57.768Z,93.30
2018-12-12T19:06:26.394Z,93.10
2018-12-12T19:08:54.951Z,93.10
2018-12-12T19:11:24.305Z,93.00
2018-12-12T19:13:53.019Z,93.30
2018-12-12T19:16:22.147Z,93.30
2018-12-12T19:18:50.810Z,93.50
2018-12-12T19:21:19.411Z,93.60
2018-12-12T19:23:48.352Z,93.50
2018-12-12T19:26:17.068Z,93.60
2018-12-12T19:28:45.642Z,93.70
2018-12-12T19:31:14.305Z,93.70
2018-12-12T19:33:42.804Z,93.60
2018-12-12T19:36:11.471Z,93.70
2018-12-12T19:38:40.021Z,93.70
2018-12-12T19:41:08.519Z,93.80
2018-12-12T19:43:37.223Z,93.70
2018-12-12T19:46:05.837Z,93.80
2018-12-12T19:48:34.398Z,93.90
2018-12-12T19:51:03.085Z,93.80
2018-12-12T19:53:31.651Z,93.90
2018-12-12T19:56:00.480Z,94.00
2018-12-12T19:58:29.023Z,94.00
2018-12-12T20:00:57.577Z,93.80
2018-12-12T20:03:26.226Z,94.10
2018-12-12T20:05:54.890Z,94.00
2018-12-12T20:08:23.775Z,94.10
2018-12-12T20:10:52.757Z,94.00
2018-12-12T20:13:21.358Z,94.10
2018-12-12T20:15:51.006Z,94.20
2018-12-12T20:18:19.568Z,94.10
2018-12-12T20:20:48.253Z,94.10
2018-12-12T20:23:17.848Z,94.20
2018-12-12T20:25:46.462Z,94.10
2018-12-12T20:28:15.157Z,94.20
2018-12-12T20:30:43.707Z,94.20
2018-12-12T20:33:12.291Z,94.20
2018-12-12T20:35:40.960Z,94.30
2018-12-12T20:38:12.550Z,94.30
2018-12-12T20:40:42.061Z,94.40
2018-12-12T20:43:10.694Z,94.90
2018-12-12T20:45:39.204Z,94.60
2018-12-12T20:48:07.673Z,94.60
2018-12-12T20:50:36.304Z,94.60
2018-12-12T20:53:04.888Z,94.60
2018-12-12T20:55:34.176Z,94.70
2018-12-12T20:58:02.971Z,94.70
2018-12-12T21:00:31.825Z,94.70
2018-12-12T21:03:00.308Z,94.70
2018-12-12T21:05:28.808Z,94.60
2018-12-12T21:07:57.290Z,94.70
2018-12-12T21:10:25.785Z,94.70
2018-12-12T21:12:54.222Z,94.70
2018-12-12T21:15:22.974Z,94.80
2018-12-12T21:17:52.149Z,94.70
2018-12-12T21:20:22.396Z,94.80
2018-12-12T21:22:50.976Z,94.80
2018-12-12T21:25:19.599Z,94.90
2018-12-12T21:27:48.239Z,94.90
2018-12-12T21:30:17.412Z,94.90
2018-12-12T21:32:46.123Z,95.00
2018-12-12T21:35:14.978Z,95.20
2018-12-12T21:37:43.694Z,95.30
2018-12-12T21:40:12.866Z,95.30
2018-12-12T21:42:41.473Z,95.40
2018-12-12T21:45:10.182Z,95.40
2018-12-12T21:47:39.189Z,95.40
2018-12-12T21:50:08.828Z,95.30
2018-12-12T21:52:38.094Z,95.40
2018-12-12T21:55:06.778Z,95.30
2018-12-12T21:57:36.408Z,95.70
2018-12-12T22:00:05.876Z,95.40
2018-12-12T22:02:34.430Z,95.30
2018-12-12T22:05:04.123Z,95.60
2018-12-12T22:07:32.651Z,95.30
2018-12-12T22:10:01.164Z,95.20
2018-12-12T22:12:29.687Z,95.30
2018-12-12T22:14:58.249Z,95.30
2018-12-12T22:17:26.808Z,95.20
2018-12-12T22:19:55.409Z,95.00
2018-12-12T22:22:23.993Z,95.00
2018-12-12T22:24:52.491Z,95.00
2018-12-12T22:27:21.360Z,94.70
2018-12-12T22:29:50.615Z,94.80
2018-12-12T22:32:19.169Z,94.80
2018-12-12T22:34:47.704Z,94.90
2018-12-12T22:37:16.305Z,94.90
2018-12-12T22:39:45.124Z,94.90
2018-12-12T22:42:13.725Z,94.90
2018-12-12T22:44:42.356Z,95.40
2018-12-12T22:47:10.929Z,95.10
2018-12-12T22:49:39.488Z,95.10
2018-12-12T22:52:08.100Z,95.20
2018-12-12T22:54:36.679Z,95.10
2018-12-12T22:57:05.509Z,95.10
2018-12-12T22:59:34.236Z,95.20
2018-12-12T23:02:02.869Z,95.20
2018-12-12T23:04:31.987Z,95.30
2018-12-12T23:07:00.557Z,95.80
2018-12-12T23:09:29.223Z,95.50
2018-12-12T23:11:57.769Z,95.60
2018-12-12T23:14:26.430Z,95.60
2018-12-12T23:16:55.100Z,95.60
2018-12-12T23:19:23.965Z,95.40
2018-12-12T23:21:52.693Z,95.40
2018-12-12T23:24:25.124Z,95.40
2018-12-12T23:26:51.960Z,95.30
2018-12-12T23:29:20.552Z,95.40
2018-12-12T23:31:49.904Z,95.40
2018-12-12T23:34:18.472Z,95.50
2018-12-12T23:36:47.055Z,95.60
2018-12-12T23:39:15.586Z,95.60
2018-12-12T23:41:44.175Z,95.60
2018-12-12T23:44:12.829Z,96.00
2018-12-12T23:46:41.436Z,95.50
2018-12-12T23:49:09.950Z,95.50
2018-12-12T23:51:38.502Z,95.60
2018-12-12T23:54:07.050Z,95.50
2018-12-12T23:56:36.689Z,95.40
2018-12-12T23:59:05.273Z,95.40
